DAL100 KCMH-KAVL
Flight info
| Callsign | DAL100 |
|---|---|
| Flight time | N/A |
| Altitude | 11000 |
| Route | POBSE OHIOS DOOGE |
| Aircraft | B722/M-SDFGRWY/S |
Departure
| Time | N/A |
|---|---|
| Airport | John Glenn Columbus International Airport (KCMH) |
Arrival
| Time | 2026-04-16 23:36 |
|---|---|
| Airport | Asheville Regional Airport (KAVL) |
| Time | Latitude | Longitude | Altitude | Speed | Heading |
|---|---|---|---|---|---|
| 2026-04-16 23:29 | 35.49973 | -82.37261 | 7992 ft | 264 kts | 64° |
| 2026-04-16 23:29 | 35.50943 | -82.35363 | 7977 ft | 261 kts | 40° |
| 2026-04-16 23:30 | 35.52494 | -82.34306 | 7987 ft | 255 kts | 7° |
| 2026-04-16 23:30 | 35.54249 | -82.34255 | 7995 ft | 251 kts | 348° |
| 2026-04-16 23:30 | 35.55823 | -82.35051 | 7901 ft | 245 kts | 317° |
| 2026-04-16 23:30 | 35.56756 | -82.36736 | 7767 ft | 240 kts | 283° |
| 2026-04-16 23:31 | 35.56868 | -82.38728 | 7649 ft | 238 kts | 265° |
| 2026-04-16 23:31 | 35.56677 | -82.40735 | 7577 ft | 221 kts | 263° |
| 2026-04-16 23:31 | 35.56502 | -82.42494 | 7419 ft | 203 kts | 263° |
| 2026-04-16 23:31 | 35.56320 | -82.44183 | 7237 ft | 201 kts | 263° |
| 2026-04-16 23:32 | 35.56140 | -82.45838 | 7058 ft | 187 kts | 263° |
| 2026-04-16 23:32 | 35.55969 | -82.47384 | 6758 ft | 182 kts | 263° |
| 2026-04-16 23:32 | 35.55800 | -82.48914 | 6481 ft | 179 kts | 263° |
| 2026-04-16 23:32 | 35.55632 | -82.50422 | 6245 ft | 180 kts | 262° |
| 2026-04-16 23:33 | 35.55247 | -82.51867 | 5952 ft | 182 kts | 239° |
| 2026-04-16 23:33 | 35.54400 | -82.53143 | 5725 ft | 191 kts | 233° |
| 2026-04-16 23:33 | 35.53565 | -82.54349 | 5259 ft | 183 kts | 233° |
| 2026-04-16 23:33 | 35.52751 | -82.55526 | 4724 ft | 178 kts | 233° |
| 2026-04-16 23:34 | 35.51905 | -82.56640 | 4239 ft | 178 kts | 225° |
| 2026-04-16 23:34 | 35.50812 | -82.57368 | 3924 ft | 184 kts | 194° |
| 2026-04-16 23:34 | 35.49564 | -82.57030 | 3918 ft | 179 kts | 156° |
| 2026-04-16 23:34 | 35.48499 | -82.56381 | 3517 ft | 164 kts | 161° |
| 2026-04-16 23:35 | 35.47492 | -82.55934 | 3152 ft | 150 kts | 165° |
| 2026-04-16 23:35 | 35.46539 | -82.55516 | 2791 ft | 142 kts | 162° |
| 2026-04-16 23:35 | 35.45634 | -82.55108 | 2434 ft | 136 kts | 162° |
| 2026-04-16 23:35 | 35.44781 | -82.54733 | 2228 ft | 123 kts | 161° |
| 2026-04-16 23:36 | 35.44080 | -82.54418 | 2165 ft | 83 kts | 159° |
| 2026-04-16 23:36 | 35.43646 | -82.54224 | 2159 ft | 59 kts | 160° |
| 2026-04-16 23:36 | 35.43355 | -82.54094 | 2158 ft | 35 kts | 160° |
| 2026-04-16 23:36 | 35.43170 | -82.54010 | 2158 ft | 19 kts | 157° |
| 2026-04-16 23:37 | 35.43088 | -82.53921 | 2156 ft | 10 kts | 122° |
| 2026-04-16 23:37 | 35.43088 | -82.53855 | 2157 ft | 6 kts | 41° |
| 2026-04-16 23:37 | 35.43126 | -82.53848 | 2158 ft | 4 kts | 348° |
| 2026-04-16 23:38 | 35.43137 | -82.53851 | 2155 ft | 4 kts | 345° |
| 2026-04-16 23:39 | 35.43171 | -82.53865 | 2158 ft | 6 kts | 340° |
| 2026-04-16 23:39 | 35.43218 | -82.53886 | 2156 ft | 9 kts | 340° |
| 2026-04-16 23:39 | 35.43287 | -82.53917 | 2153 ft | 12 kts | 339° |
| 2026-04-16 23:39 | 35.43316 | -82.53930 | 2155 ft | 14 kts | 339° |